Dr.kaiyo — JD2325 — position and weather

sailwx.info

Track history (hours):
 
Tides and Currents Weather Stations Pressure Air Temp Water Temp Dewpoint Dewpoint Depression Visibility Wind Speed Wind Dir Waves Ship Positions

Dr.kaiyo

Last reported at 2018-Feb-23 04:29 UTC. Time now 2018-Feb-25 15:25 UTC.
Position N 34°41' E 135°12'.

Length 31 m.

Type: Other ship. MMSI: 431301823.

Date/timePositionNaut miles runAvg speedWind from/ knotsBaromVisibWave heightAir tempDewpointWater temp
2018-Feb-23 04:29N 34°41' E 135°12'2 4.9
2018-Feb-23 04:00N 34°40' E 135°15'2 4.4
2018-Feb-23 03:30N 34°39' E 135°17'510.7
2018-Feb-23 03:00N 34°33' E 135°16'4 7.6
2018-Feb-23 02:30N 34°30' E 135°13'3 7.0
2018-Feb-23 02:00N 34°28' E 135°10'4 7.9
2018-Feb-23 01:31N 34°24' E 135°10'4 8.1
2018-Feb-23 01:00N 34°24' E 135°05'713.6
2018-Feb-23 00:30N 34°31' E 135°05'4 8.2
2018-Feb-23 00:00N 34°34' E 135°07'713.3
2018-Feb-22 23:30N 34°40' E 135°12'2 3.2
2018-Feb-22 23:00N 34°41' E 135°12'0 0.0
2018-Feb-22 06:25N 34°41' E 135°12'1 2.1
2018-Feb-22 06:00N 34°41' E 135°12'4 8.4
2018-Feb-22 05:30N 34°37' E 135°10'4 8.5
2018-Feb-22 05:00N 34°37' E 135°05'510.9
2018-Feb-22 04:30N 34°32' E 135°02'4 7.9
2018-Feb-22 04:00N 34°28' E 135°00'4 7.6
2018-Feb-22 03:30N 34°28' E 135°05'611.6
2018-Feb-22 03:00N 34°32' E 135°10'4 7.7
2018-Feb-22 02:31N 34°30' E 135°14'4 7.0
2018-Feb-22 02:00N 34°31' E 135°18'4 7.6
2018-Feb-22 01:31N 34°34' E 135°20'4 8.2
2018-Feb-22 01:01N 34°38' E 135°20'2 3.1
2018-Feb-22 00:31N 34°39' E 135°20'5 9.2
2018-Feb-22 00:01N 34°37' E 135°15'4 7.8
2018-Feb-21 23:30N 34°41' E 135°14'2 3.9
2018-Feb-21 23:00N 34°41' E 135°12'0 0.0
2018-Feb-21 22:31N 34°41' E 135°12'0 0.0
2018-Feb-21 05:25N 34°41' E 135°12'0 0.5
2018-Feb-21 05:00N 34°42' E 135°13'4 8.9
2018-Feb-21 04:30N 34°41' E 135°18'2 3.8
2018-Feb-21 04:00N 34°40' E 135°20'0 0.0
2018-Feb-21 03:30N 34°40' E 135°20'0 0.0
2018-Feb-21 03:00N 34°40' E 135°20'3 6.1
2018-Feb-21 02:30N 34°38' E 135°18'714.5
2018-Feb-21 02:00N 34°32' E 135°13'611.9
2018-Feb-21 01:30N 34°30' E 135°06'510.7
2018-Feb-21 01:01N 34°36' E 135°05'713.2
2018-Feb-21 00:30N 34°40' E 135°12'2 3.5
2018-Feb-21 00:00N 34°41' E 135°12'0 0.0
2018-Feb-20 23:30N 34°41' E 135°12'0 0.0
2018-Feb-20 05:22N 34°41' E 135°12'1 2.1
2018-Feb-20 05:00N 34°41' E 135°13'4 7.7
2018-Feb-20 04:31N 34°38' E 135°14'2 4.8
2018-Feb-20 04:00N 34°39' E 135°12'0 0.0
2018-Feb-20 03:30N 34°39' E 135°12'0 0.0
2018-Feb-20 03:00N 34°39' E 135°12'3 5.5
2018-Feb-20 02:31N 34°36' E 135°10'612.1
2018-Feb-20 02:00N 34°37' E 135°17'714.5
2018-Feb-20 01:30N 34°31' E 135°12'4 7.6
2018-Feb-20 01:01N 34°34' E 135°10'612.0
2018-Feb-20 00:30N 34°40' E 135°12'1 2.5
2018-Feb-20 00:00N 34°41' E 135°12'  
2018-Feb-14 02:41N 34°41' E 135°12'0 0.0
2018-Feb-14 02:31N 34°41' E 135°12'2 4.4
2018-Feb-14 02:00N 34°39' E 135°11'2 4.6
2018-Feb-14 01:31N 34°37' E 135°10'5 9.1
2018-Feb-14 01:01N 34°40' E 135°15'3 5.9
2018-Feb-14 00:31N 34°41' E 135°12'0 0.0
2018-Feb-14 00:01N 34°41' E 135°12'0 0.0
2018-Feb-13 05:28N 34°41' E 135°12'  
Track history (hours):
 
Tides and Currents Weather Stations Pressure Air Temp Water Temp Dewpoint Dewpoint Depression Visibility Wind Speed Wind Dir Waves Ship Positions

Dr.kaiyo

Last reported at 2018-Feb-23 04:29 UTC. Time now 2018-Feb-25 15:25 UTC.
Position N 34°41' E 135°12'.

Length 31 m.

Type: Other ship. MMSI: 431301823.

Date/timePositionNaut miles runAvg speedWind from/ knotsBaromVisibWave heightAir tempDewpointWater temp
2018-Feb-23 04:29N 34°41' E 135°12'2 4.9
2018-Feb-23 04:00N 34°40' E 135°15'2 4.4
2018-Feb-23 03:30N 34°39' E 135°17'510.7
2018-Feb-23 03:00N 34°33' E 135°16'4 7.6
2018-Feb-23 02:30N 34°30' E 135°13'3 7.0
2018-Feb-23 02:00N 34°28' E 135°10'4 7.9
2018-Feb-23 01:31N 34°24' E 135°10'4 8.1
2018-Feb-23 01:00N 34°24' E 135°05'713.6
2018-Feb-23 00:30N 34°31' E 135°05'4 8.2
2018-Feb-23 00:00N 34°34' E 135°07'713.3
2018-Feb-22 23:30N 34°40' E 135°12'2 3.2
2018-Feb-22 23:00N 34°41' E 135°12'0 0.0
2018-Feb-22 06:25N 34°41' E 135°12'1 2.1
2018-Feb-22 06:00N 34°41' E 135°12'4 8.4
2018-Feb-22 05:30N 34°37' E 135°10'4 8.5
2018-Feb-22 05:00N 34°37' E 135°05'510.9
2018-Feb-22 04:30N 34°32' E 135°02'4 7.9
2018-Feb-22 04:00N 34°28' E 135°00'4 7.6
2018-Feb-22 03:30N 34°28' E 135°05'611.6
2018-Feb-22 03:00N 34°32' E 135°10'4 7.7
2018-Feb-22 02:31N 34°30' E 135°14'4 7.0
2018-Feb-22 02:00N 34°31' E 135°18'4 7.6
2018-Feb-22 01:31N 34°34' E 135°20'4 8.2
2018-Feb-22 01:01N 34°38' E 135°20'2 3.1
2018-Feb-22 00:31N 34°39' E 135°20'5 9.2
2018-Feb-22 00:01N 34°37' E 135°15'4 7.8
2018-Feb-21 23:30N 34°41' E 135°14'2 3.9
2018-Feb-21 23:00N 34°41' E 135°12'0 0.0
2018-Feb-21 22:31N 34°41' E 135°12'0 0.0
2018-Feb-21 05:25N 34°41' E 135°12'0 0.5
2018-Feb-21 05:00N 34°42' E 135°13'4 8.9
2018-Feb-21 04:30N 34°41' E 135°18'2 3.8
2018-Feb-21 04:00N 34°40' E 135°20'0 0.0
2018-Feb-21 03:30N 34°40' E 135°20'0 0.0
2018-Feb-21 03:00N 34°40' E 135°20'3 6.1
2018-Feb-21 02:30N 34°38' E 135°18'714.5
2018-Feb-21 02:00N 34°32' E 135°13'611.9
2018-Feb-21 01:30N 34°30' E 135°06'510.7
2018-Feb-21 01:01N 34°36' E 135°05'713.2
2018-Feb-21 00:30N 34°40' E 135°12'2 3.5
2018-Feb-21 00:00N 34°41' E 135°12'0 0.0
2018-Feb-20 23:30N 34°41' E 135°12'0 0.0
2018-Feb-20 05:22N 34°41' E 135°12'1 2.1
2018-Feb-20 05:00N 34°41' E 135°13'4 7.7
2018-Feb-20 04:31N 34°38' E 135°14'2 4.8
2018-Feb-20 04:00N 34°39' E 135°12'0 0.0
2018-Feb-20 03:30N 34°39' E 135°12'0 0.0
2018-Feb-20 03:00N 34°39' E 135°12'3 5.5
2018-Feb-20 02:31N 34°36' E 135°10'612.1
2018-Feb-20 02:00N 34°37' E 135°17'714.5
2018-Feb-20 01:30N 34°31' E 135°12'4 7.6
2018-Feb-20 01:01N 34°34' E 135°10'612.0
2018-Feb-20 00:30N 34°40' E 135°12'1 2.5
2018-Feb-20 00:00N 34°41' E 135°12'  
2018-Feb-14 02:41N 34°41' E 135°12'0 0.0
2018-Feb-14 02:31N 34°41' E 135°12'2 4.4
2018-Feb-14 02:00N 34°39' E 135°11'2 4.6
2018-Feb-14 01:31N 34°37' E 135°10'5 9.1
2018-Feb-14 01:01N 34°40' E 135°15'3 5.9
2018-Feb-14 00:31N 34°41' E 135°12'0 0.0
2018-Feb-14 00:01N 34°41' E 135°12'0 0.0
2018-Feb-13 05:28N 34°41' E 135°12'  

Dump ship's entire track history